UAE14X OMDB-EHAM
Flight info
| Callsign | UAE14X |
|---|---|
| Flight time | N/A |
| Altitude | 38000 |
| Route | RIDAP M557 TUMAK L602 GADSI M860 SEPTU DCT VUSEB M860 NINVA UM860 ODALI UL852 VAXEB/N0483F400 UL852 NEGEM DCT MAXOV DCT BADOR DCT PITOK DCT MAKAL DCT LALUK DCT NORKU |
| Aircraft | A359/H-SDE2E3GHIJ3J4J5LM1ORWXY/LB1D1 |
Departure
| Time | N/A |
|---|---|
| Airport | Dubai International Airport (OMDB) |
Arrival
| Time | 2026-04-28 18:33 |
|---|---|
| Airport | Amsterdam Airport Schiphol (EHAM) |
| Time | Latitude | Longitude | Altitude | Speed | Heading |
|---|---|---|---|---|---|
| 2026-04-28 17:55 | 51.76077 | 9.48464 | 39978 ft | 469 kts | 289° |
| 2026-04-28 17:55 | 51.77050 | 9.43448 | 39989 ft | 469 kts | 289° |
| 2026-04-28 17:56 | 51.78993 | 9.33401 | 39985 ft | 468 kts | 289° |
| 2026-04-28 17:56 | 51.80925 | 9.23352 | 39980 ft | 468 kts | 289° |
| 2026-04-28 17:57 | 51.82849 | 9.13298 | 39973 ft | 469 kts | 289° |
| 2026-04-28 17:57 | 51.84765 | 9.03225 | 39981 ft | 469 kts | 289° |
| 2026-04-28 17:58 | 51.86674 | 8.93139 | 39981 ft | 468 kts | 289° |
| 2026-04-28 17:58 | 51.88573 | 8.83058 | 39977 ft | 469 kts | 289° |
| 2026-04-28 17:59 | 51.90465 | 8.72948 | 39977 ft | 470 kts | 288° |
| 2026-04-28 17:59 | 51.92351 | 8.62823 | 39973 ft | 469 kts | 289° |
| 2026-04-28 18:00 | 51.94237 | 8.52638 | 39970 ft | 470 kts | 288° |
| 2026-04-28 18:00 | 51.96110 | 8.42472 | 39989 ft | 470 kts | 288° |
| 2026-04-28 18:01 | 51.97971 | 8.32309 | 39977 ft | 470 kts | 289° |
| 2026-04-28 18:01 | 51.99808 | 8.22226 | 39984 ft | 470 kts | 289° |
| 2026-04-28 18:02 | 52.01659 | 8.12011 | 39983 ft | 473 kts | 289° |
| 2026-04-28 18:02 | 52.03505 | 8.01767 | 39990 ft | 473 kts | 289° |
| 2026-04-28 18:03 | 52.05339 | 7.91529 | 39995 ft | 472 kts | 288° |
| 2026-04-28 18:03 | 52.07151 | 7.81341 | 39460 ft | 467 kts | 288° |
| 2026-04-28 18:04 | 52.08060 | 7.76223 | 38705 ft | 474 kts | 288° |
| 2026-04-28 18:04 | 52.08979 | 7.71044 | 37690 ft | 480 kts | 288° |
| 2026-04-28 18:04 | 52.09924 | 7.65723 | 36643 ft | 487 kts | 289° |
| 2026-04-28 18:04 | 52.10865 | 7.60406 | 35658 ft | 492 kts | 289° |
| 2026-04-28 18:05 | 52.11802 | 7.55105 | 34733 ft | 496 kts | 289° |
| 2026-04-28 18:05 | 52.12446 | 7.51447 | 34079 ft | 499 kts | 289° |
| 2026-04-28 18:05 | 52.13713 | 7.44241 | 32662 ft | 502 kts | 288° |
| 2026-04-28 18:05 | 52.14673 | 7.38755 | 31610 ft | 503 kts | 288° |
| 2026-04-28 18:06 | 52.15630 | 7.33270 | 30646 ft | 505 kts | 288° |
| 2026-04-28 18:06 | 52.16589 | 7.27756 | 29496 ft | 506 kts | 288° |
| 2026-04-28 18:06 | 52.17548 | 7.22235 | 28485 ft | 506 kts | 288° |
| 2026-04-28 18:06 | 52.18495 | 7.16748 | 27689 ft | 501 kts | 288° |
| 2026-04-28 18:07 | 52.19427 | 7.11317 | 26953 ft | 495 kts | 288° |
| 2026-04-28 18:07 | 52.20348 | 7.05926 | 26177 ft | 491 kts | 287° |
| 2026-04-28 18:07 | 52.21303 | 7.00610 | 25470 ft | 485 kts | 292° |
| 2026-04-28 18:07 | 52.22785 | 6.95746 | 24740 ft | 476 kts | 307° |
| 2026-04-28 18:08 | 52.24772 | 6.91497 | 24229 ft | 465 kts | 312° |
| 2026-04-28 18:08 | 52.26797 | 6.87495 | 24010 ft | 450 kts | 313° |
| 2026-04-28 18:08 | 52.28751 | 6.83627 | 23992 ft | 432 kts | 312° |
| 2026-04-28 18:08 | 52.30638 | 6.79857 | 23991 ft | 414 kts | 312° |
| 2026-04-28 18:09 | 52.32396 | 6.76321 | 23992 ft | 400 kts | 312° |
| 2026-04-28 18:09 | 52.34168 | 6.72758 | 23986 ft | 398 kts | 312° |
| 2026-04-28 18:09 | 52.35911 | 6.69251 | 23985 ft | 397 kts | 311° |
| 2026-04-28 18:09 | 52.37646 | 6.65748 | 23985 ft | 396 kts | 311° |
| 2026-04-28 18:10 | 52.39384 | 6.62235 | 23989 ft | 396 kts | 312° |
| 2026-04-28 18:10 | 52.41094 | 6.58778 | 23989 ft | 396 kts | 312° |
| 2026-04-28 18:10 | 52.42850 | 6.55222 | 23989 ft | 396 kts | 312° |
| 2026-04-28 18:10 | 52.44580 | 6.51716 | 23989 ft | 396 kts | 311° |
| 2026-04-28 18:11 | 52.46178 | 6.48029 | 23988 ft | 399 kts | 301° |
| 2026-04-28 18:11 | 52.47117 | 6.43743 | 23988 ft | 405 kts | 283° |
| 2026-04-28 18:11 | 52.47463 | 6.39195 | 23988 ft | 411 kts | 277° |
| 2026-04-28 18:11 | 52.47682 | 6.34505 | 23985 ft | 412 kts | 276° |
| 2026-04-28 18:12 | 52.47890 | 6.29816 | 23985 ft | 412 kts | 276° |
| 2026-04-28 18:12 | 52.48104 | 6.25129 | 23987 ft | 411 kts | 276° |
| 2026-04-28 18:12 | 52.48323 | 6.20457 | 23988 ft | 411 kts | 276° |
| 2026-04-28 18:12 | 52.48544 | 6.15790 | 23987 ft | 412 kts | 277° |
| 2026-04-28 18:13 | 52.48767 | 6.11101 | 23986 ft | 412 kts | 276° |
| 2026-04-28 18:13 | 52.48991 | 6.06408 | 23986 ft | 412 kts | 276° |
| 2026-04-28 18:13 | 52.49358 | 6.01804 | 23915 ft | 401 kts | 286° |
| 2026-04-28 18:13 | 52.50438 | 5.97645 | 23311 ft | 394 kts | 305° |
| 2026-04-28 18:14 | 52.52179 | 5.94196 | 22570 ft | 393 kts | 319° |
| 2026-04-28 18:14 | 52.54249 | 5.91292 | 22001 ft | 389 kts | 325° |
| 2026-04-28 18:14 | 52.56426 | 5.88702 | 21477 ft | 385 kts | 328° |
| 2026-04-28 18:14 | 52.58649 | 5.86283 | 20998 ft | 381 kts | 330° |
| 2026-04-28 18:15 | 52.60893 | 5.84006 | 20489 ft | 378 kts | 332° |
| 2026-04-28 18:15 | 52.63143 | 5.81771 | 20002 ft | 375 kts | 332° |
| 2026-04-28 18:15 | 52.65352 | 5.79567 | 19600 ft | 369 kts | 332° |
| 2026-04-28 18:15 | 52.67547 | 5.77403 | 19112 ft | 367 kts | 332° |
| 2026-04-28 18:16 | 52.69742 | 5.75255 | 18586 ft | 366 kts | 332° |
| 2026-04-28 18:16 | 52.71907 | 5.73061 | 18009 ft | 366 kts | 327° |
| 2026-04-28 18:16 | 52.73704 | 5.70080 | 17487 ft | 369 kts | 308° |
| 2026-04-28 18:16 | 52.74854 | 5.66299 | 16967 ft | 372 kts | 290° |
| 2026-04-28 18:17 | 52.75238 | 5.62088 | 16452 ft | 374 kts | 271° |
| 2026-04-28 18:17 | 52.74795 | 5.57908 | 16146 ft | 366 kts | 251° |
| 2026-04-28 18:17 | 52.73785 | 5.54137 | 15952 ft | 356 kts | 242° |
| 2026-04-28 18:17 | 52.72539 | 5.50623 | 15697 ft | 346 kts | 237° |
| 2026-04-28 18:18 | 52.71228 | 5.47338 | 15477 ft | 337 kts | 235° |
| 2026-04-28 18:18 | 52.69894 | 5.44254 | 15189 ft | 331 kts | 233° |
| 2026-04-28 18:18 | 52.68549 | 5.41219 | 14826 ft | 328 kts | 233° |
| 2026-04-28 18:18 | 52.67637 | 5.39165 | 14538 ft | 328 kts | 233° |
| 2026-04-28 18:19 | 52.65845 | 5.35132 | 13910 ft | 328 kts | 233° |
| 2026-04-28 18:19 | 52.64510 | 5.32131 | 13600 ft | 322 kts | 233° |
| 2026-04-28 18:19 | 52.63206 | 5.29167 | 13218 ft | 318 kts | 233° |
| 2026-04-28 18:19 | 52.61920 | 5.26194 | 12741 ft | 319 kts | 233° |
| 2026-04-28 18:20 | 52.60638 | 5.23209 | 12236 ft | 320 kts | 233° |
| 2026-04-28 18:20 | 52.59362 | 5.20238 | 11868 ft | 316 kts | 233° |
| 2026-04-28 18:20 | 52.58100 | 5.17308 | 11566 ft | 310 kts | 233° |
| 2026-04-28 18:20 | 52.56857 | 5.14421 | 11112 ft | 310 kts | 233° |
| 2026-04-28 18:21 | 52.55616 | 5.11525 | 10661 ft | 311 kts | 233° |
| 2026-04-28 18:21 | 52.54375 | 5.08609 | 10248 ft | 310 kts | 233° |
| 2026-04-28 18:21 | 52.53151 | 5.05743 | 9893 ft | 305 kts | 233° |
| 2026-04-28 18:21 | 52.51935 | 5.02908 | 9517 ft | 301 kts | 233° |
| 2026-04-28 18:22 | 52.50733 | 5.00092 | 9037 ft | 302 kts | 233° |
| 2026-04-28 18:22 | 52.49538 | 4.97265 | 8566 ft | 302 kts | 233° |
| 2026-04-28 18:22 | 52.48349 | 4.94432 | 8186 ft | 299 kts | 233° |
| 2026-04-28 18:22 | 52.47175 | 4.91651 | 7839 ft | 294 kts | 233° |
| 2026-04-28 18:23 | 52.46010 | 4.88911 | 7447 ft | 292 kts | 233° |
| 2026-04-28 18:23 | 52.44851 | 4.86179 | 7071 ft | 291 kts | 233° |
| 2026-04-28 18:23 | 52.43699 | 4.83453 | 6979 ft | 292 kts | 233° |
| 2026-04-28 18:23 | 52.42544 | 4.80701 | 6977 ft | 293 kts | 233° |
| 2026-04-28 18:24 | 52.41386 | 4.77961 | 6990 ft | 292 kts | 233° |
| 2026-04-28 18:24 | 52.40997 | 4.77042 | 6993 ft | 291 kts | 233° |
| 2026-04-28 18:24 | 52.39081 | 4.72541 | 6997 ft | 290 kts | 233° |
| 2026-04-28 18:24 | 52.37931 | 4.69818 | 6995 ft | 291 kts | 233° |
| 2026-04-28 18:25 | 52.36778 | 4.67086 | 7007 ft | 292 kts | 234° |
| 2026-04-28 18:25 | 52.35623 | 4.64356 | 7006 ft | 291 kts | 233° |
| 2026-04-28 18:25 | 52.34471 | 4.61641 | 7006 ft | 290 kts | 233° |
| 2026-04-28 18:26 | 52.32161 | 4.56215 | 7006 ft | 291 kts | 233° |
| 2026-04-28 18:26 | 52.31006 | 4.53479 | 7009 ft | 293 kts | 233° |
| 2026-04-28 18:26 | 52.29849 | 4.50755 | 6882 ft | 289 kts | 233° |
| 2026-04-28 18:26 | 52.28704 | 4.48069 | 6395 ft | 291 kts | 233° |
| 2026-04-28 18:27 | 52.27925 | 4.46249 | 5978 ft | 296 kts | 232° |
| 2026-04-28 18:27 | 52.26333 | 4.42499 | 5224 ft | 302 kts | 232° |
| 2026-04-28 18:27 | 52.25426 | 4.40829 | 5066 ft | 292 kts | 217° |
| 2026-04-28 18:27 | 52.23132 | 4.39044 | 4768 ft | 258 kts | 183° |
| 2026-04-28 18:28 | 52.21996 | 4.39045 | 4567 ft | 241 kts | 165° |
| 2026-04-28 18:28 | 52.20521 | 4.40065 | 4022 ft | 224 kts | 136° |
| 2026-04-28 18:28 | 52.19663 | 4.42010 | 3625 ft | 203 kts | 103° |
| 2026-04-28 18:28 | 52.19435 | 4.44154 | 3463 ft | 182 kts | 90° |
| 2026-04-28 18:29 | 52.19416 | 4.46153 | 3158 ft | 170 kts | 86° |
| 2026-04-28 18:29 | 52.19482 | 4.48057 | 2709 ft | 167 kts | 79° |
| 2026-04-28 18:29 | 52.19782 | 4.49851 | 2288 ft | 162 kts | 70° |
| 2026-04-28 18:29 | 52.20484 | 4.51253 | 2035 ft | 161 kts | 46° |
| 2026-04-28 18:30 | 52.20975 | 4.52868 | 2001 ft | 162 kts | 73° |
| 2026-04-28 18:30 | 52.21299 | 4.53965 | 2001 ft | 162 kts | 59° |
| 2026-04-28 18:30 | 52.22087 | 4.56022 | 1999 ft | 159 kts | 58° |
| 2026-04-28 18:30 | 52.22677 | 4.57530 | 2001 ft | 158 kts | 59° |
| 2026-04-28 18:31 | 52.23267 | 4.59056 | 2002 ft | 160 kts | 59° |
| 2026-04-28 18:31 | 52.23864 | 4.60597 | 1997 ft | 161 kts | 58° |
| 2026-04-28 18:31 | 52.24457 | 4.62135 | 1997 ft | 161 kts | 58° |
| 2026-04-28 18:31 | 52.25055 | 4.63688 | 1997 ft | 160 kts | 59° |
| 2026-04-28 18:32 | 52.25650 | 4.65236 | 1998 ft | 158 kts | 59° |
| 2026-04-28 18:32 | 52.26225 | 4.66732 | 1986 ft | 159 kts | 58° |
| 2026-04-28 18:32 | 52.26849 | 4.68344 | 1214 ft | 178 kts | 58° |
| 2026-04-28 18:32 | 52.27514 | 4.70091 | 682 ft | 179 kts | 61° |
| 2026-04-28 18:33 | 52.28144 | 4.71809 | 297 ft | 173 kts | 55° |
| 2026-04-28 18:33 | 52.28786 | 4.73360 | 102 ft | 159 kts | 61° |
| 2026-04-28 18:33 | 52.29347 | 4.74841 | 25 ft | 131 kts | 58° |
| 2026-04-28 18:33 | 52.29647 | 4.75619 | 28 ft | 48 kts | 53° |
| 2026-04-28 18:34 | 52.29865 | 4.75872 | 23 ft | 20 kts | 28° |
| 2026-04-28 18:34 | 52.29880 | 4.75886 | 23 ft | 0 kts | 28° |
| 2026-04-28 18:34 | 52.29882 | 4.75887 | 23 ft | 1 kts | 28° |
| 2026-04-28 18:35 | 52.29920 | 4.75920 | 21 ft | 8 kts | 28° |
| 2026-04-28 18:35 | 52.29968 | 4.75963 | 21 ft | 8 kts | 28° |
| 2026-04-28 18:35 | 52.30002 | 4.76019 | 23 ft | 8 kts | 51° |
| 2026-04-28 18:35 | 52.30046 | 4.76122 | 20 ft | 14 kts | 58° |
| 2026-04-28 18:36 | 52.30103 | 4.76275 | 22 ft | 17 kts | 59° |
| 2026-04-28 18:36 | 52.30174 | 4.76464 | 20 ft | 22 kts | 58° |
| 2026-04-28 18:36 | 52.30248 | 4.76652 | 22 ft | 17 kts | 57° |
| 2026-04-28 18:36 | 52.30304 | 4.76796 | 19 ft | 14 kts | 58° |
| 2026-04-28 18:37 | 52.30356 | 4.76930 | 19 ft | 14 kts | 58° |
| 2026-04-28 18:37 | 52.30434 | 4.77025 | 14 ft | 16 kts | 3° |
| 2026-04-28 18:37 | 52.30520 | 4.77106 | 14 ft | 13 kts | 52° |
| 2026-04-28 18:37 | 52.30567 | 4.77233 | 14 ft | 11 kts | 71° |
| 2026-04-28 18:38 | 52.30556 | 4.77322 | 16 ft | 8 kts | 107° |
| 2026-04-28 18:38 | 52.30551 | 4.77417 | 20 ft | 9 kts | 78° |
| 2026-04-28 18:38 | 52.30580 | 4.77509 | 24 ft | 9 kts | 51° |
| 2026-04-28 18:38 | 52.30642 | 4.77576 | 24 ft | 12 kts | 27° |
| 2026-04-28 18:39 | 52.30735 | 4.77594 | 23 ft | 16 kts | 4° |
| 2026-04-28 18:39 | 52.30858 | 4.77608 | 22 ft | 20 kts | 3° |
| 2026-04-28 18:39 | 52.31011 | 4.77623 | 22 ft | 24 kts | 4° |
| 2026-04-28 18:39 | 52.31183 | 4.77628 | 20 ft | 26 kts | 1° |
| 2026-04-28 18:40 | 52.31370 | 4.77644 | 22 ft | 27 kts | 5° |
| 2026-04-28 18:40 | 52.31510 | 4.77559 | 22 ft | 13 kts | 322° |
| 2026-04-28 18:40 | 52.31568 | 4.77426 | 21 ft | 16 kts | 290° |
| 2026-04-28 18:40 | 52.31571 | 4.77202 | 15 ft | 23 kts | 267° |
| 2026-04-28 18:41 | 52.31560 | 4.76907 | 19 ft | 28 kts | 266° |
| 2026-04-28 18:41 | 52.31557 | 4.76744 | 17 ft | 0 kts | 269° |
| 2026-04-28 18:41 | 52.31555 | 4.76670 | 19 ft | 9 kts | 267° |
| 2026-04-28 18:41 | 52.31552 | 4.76568 | 22 ft | 9 kts | 267° |
| 2026-04-28 18:42 | 52.31549 | 4.76448 | 25 ft | 12 kts | 267° |
| 2026-04-28 18:42 | 52.31544 | 4.76276 | 24 ft | 18 kts | 267° |
| 2026-04-28 18:42 | 52.31535 | 4.76044 | 24 ft | 22 kts | 266° |
| 2026-04-28 18:42 | 52.31525 | 4.75764 | 18 ft | 28 kts | 267° |
| 2026-04-28 18:43 | 52.31522 | 4.75671 | 20 ft | 0 kts | 266° |
| 2026-04-28 18:47 | 52.31521 | 4.75660 | 20 ft | 3 kts | 264° |
| 2026-04-28 18:47 | 52.31517 | 4.75582 | 21 ft | 11 kts | 267° |
| 2026-04-28 18:47 | 52.31485 | 4.75464 | 20 ft | 11 kts | 204° |
| 2026-04-28 18:47 | 52.31396 | 4.75474 | 16 ft | 18 kts | 171° |
| 2026-04-28 18:48 | 52.31254 | 4.75484 | 12 ft | 14 kts | 173° |
| 2026-04-28 18:48 | 52.31234 | 4.75510 | 11 ft | 7 kts | 128° |
| 2026-04-28 18:48 | 52.31223 | 4.75600 | 9 ft | 0 kts | 87° |